sensor_id;sensor_type;location;lat;lon;timestamp;pressure;altitude;pressure_sealevel;temperature;humidity
47726;BME280;33483;48.294;16.388;2024-01-11T00:01:08;100844.09;;;-7.45;100.00
47726;BME280;33483;48.294;16.388;2024-01-11T00:03:39;100835.19;;;-7.53;100.00
47726;BME280;33483;48.294;16.388;2024-01-11T00:06:09;100831.34;;;-7.55;100.00
47726;BME280;33483;48.294;16.388;2024-01-11T00:08:36;100830.59;;;-7.52;100.00
47726;BME280;33483;48.294;16.388;2024-01-11T00:11:04;100840.28;;;-7.41;100.00
47726;BME280;33483;48.294;16.388;2024-01-11T00:13:31;100835.25;;;-7.46;100.00
47726;BME280;33483;48.294;16.388;2024-01-11T00:15:58;100833.69;;;-7.50;100.00
47726;BME280;33483;48.294;16.388;2024-01-11T00:18:25;100828.25;;;-7.57;100.00
47726;BME280;33483;48.294;16.388;2024-01-11T00:20:52;100834.72;;;-7.69;100.00
47726;BME280;33483;48.294;16.388;2024-01-11T00:23:20;100828.13;;;-7.75;100.00
47726;BME280;33483;48.294;16.388;2024-01-11T00:25:47;100830.34;;;-7.84;100.00
47726;BME280;33483;48.294;16.388;2024-01-11T00:28:14;100828.00;;;-7.89;100.00
47726;BME280;33483;48.294;16.388;2024-01-11T00:30:41;100824.88;;;-7.94;100.00
47726;BME280;33483;48.294;16.388;2024-01-11T00:33:11;100829.84;;;-7.96;100.00
47726;BME280;33483;48.294;16.388;2024-01-11T00:35:39;100827.13;;;-8.00;100.00
47726;BME280;33483;48.294;16.388;2024-01-11T00:38:06;100823.69;;;-8.00;100.00
47726;BME280;33483;48.294;16.388;2024-01-11T00:40:33;100826.78;;;-7.98;100.00
47726;BME280;33483;48.294;16.388;2024-01-11T00:43:00;100828.72;;;-7.95;100.00
47726;BME280;33483;48.294;16.388;2024-01-11T00:45:27;100829.81;;;-8.00;100.00
47726;BME280;33483;48.294;16.388;2024-01-11T00:47:55;100833.25;;;-8.03;100.00
47726;BME280;33483;48.294;16.388;2024-01-11T00:50:22;100829.81;;;-8.00;100.00
47726;BME280;33483;48.294;16.388;2024-01-11T00:52:50;100830.25;;;-7.94;100.00
47726;BME280;33483;48.294;16.388;2024-01-11T00:55:17;100829.97;;;-7.82;100.00
47726;BME280;33483;48.294;16.388;2024-01-11T00:57:46;100826.97;;;-7.74;100.00
47726;BME280;33483;48.294;16.388;2024-01-11T01:00:13;100823.94;;;-7.69;100.00
47726;BME280;33483;48.294;16.388;2024-01-11T01:02:41;100825.06;;;-7.70;100.00
47726;BME280;33483;48.294;16.388;2024-01-11T01:05:08;100826.72;;;-7.55;100.00
47726;BME280;33483;48.294;16.388;2024-01-11T01:07:35;100829.41;;;-7.55;100.00
47726;BME280;33483;48.294;16.388;2024-01-11T01:10:02;100829.41;;;-7.55;100.00
47726;BME280;33483;48.294;16.388;2024-01-11T01:12:30;100833.34;;;-7.45;100.00
47726;BME280;33483;48.294;16.388;2024-01-11T01:14:57;100831.09;;;-7.33;100.00
47726;BME280;33483;48.294;16.388;2024-01-11T01:17:24;100834.22;;;-7.27;100.00
47726;BME280;33483;48.294;16.388;2024-01-11T01:19:51;100833.81;;;-7.29;100.00
47726;BME280;33483;48.294;16.388;2024-01-11T01:22:18;100845.69;;;-7.34;100.00
47726;BME280;33483;48.294;16.388;2024-01-11T01:24:45;100841.84;;;-7.40;100.00
47726;BME280;33483;48.294;16.388;2024-01-11T01:27:13;100840.22;;;-7.48;100.00
47726;BME280;33483;48.294;16.388;2024-01-11T01:29:40;100839.44;;;-7.52;100.00
47726;BME280;33483;48.294;16.388;2024-01-11T01:32:07;100832.06;;;-7.62;100.00
47726;BME280;33483;48.294;16.388;2024-01-11T01:34:36;100832.06;;;-7.62;100.00
47726;BME280;33483;48.294;16.388;2024-01-11T01:37:04;100823.16;;;-7.69;100.00
47726;BME280;33483;48.294;16.388;2024-01-11T01:39:31;100814.66;;;-7.75;100.00
47726;BME280;33483;48.294;16.388;2024-01-11T01:41:58;100818.09;;;-7.78;100.00
47726;BME280;33483;48.294;16.388;2024-01-11T01:44:25;100823.09;;;-7.80;100.00
47726;BME280;33483;48.294;16.388;2024-01-11T01:46:52;100822.25;;;-7.87;100.00
47726;BME280;33483;48.294;16.388;2024-01-11T01:49:19;100825.69;;;-7.90;100.00
47726;BME280;33483;48.294;16.388;2024-01-11T01:51:50;100830.25;;;-7.94;100.00
47726;BME280;33483;48.294;16.388;2024-01-11T01:54:17;100826.78;;;-7.98;100.00
47726;BME280;33483;48.294;16.388;2024-01-11T01:56:45;100821.41;;;-7.98;100.00
47726;BME280;33483;48.294;16.388;2024-01-11T01:59:14;100829.44;;;-8.02;100.00
47726;BME280;33483;48.294;16.388;2024-01-11T02:01:43;100822.47;;;-8.07;100.00
47726;BME280;33483;48.294;16.388;2024-01-11T02:04:10;100823.22;;;-8.10;100.00
47726;BME280;33483;48.294;16.388;2024-01-11T02:06:37;100818.22;;;-8.11;100.00
47726;BME280;33483;48.294;16.388;2024-01-11T02:09:09;100821.28;;;-8.13;100.00
47726;BME280;33483;48.294;16.388;2024-01-11T02:11:40;100824.66;;;-8.19;100.00
47726;BME280;33483;48.294;16.388;2024-01-11T02:14:10;100824.00;;;-8.09;100.00
47726;BME280;33483;48.294;16.388;2024-01-11T02:16:38;100825.50;;;-8.12;100.00
47726;BME280;33483;48.294;16.388;2024-01-11T02:19:05;100826.28;;;-8.11;100.00
47726;BME280;33483;48.294;16.388;2024-01-11T02:21:34;100805.84;;;-8.19;100.00
47726;BME280;33483;48.294;16.388;2024-01-11T02:24:06;100814.66;;;-8.22;100.00
47726;BME280;33483;48.294;16.388;2024-01-11T02:26:36;100811.59;;;-8.24;100.00
47726;BME280;33483;48.294;16.388;2024-01-11T02:29:04;100807.38;;;-8.22;100.00
47726;BME280;33483;48.294;16.388;2024-01-11T02:31:31;100798.91;;;-8.20;100.00
47726;BME280;33483;48.294;16.388;2024-01-11T02:33:58;100797.41;;;-8.18;100.00
47726;BME280;33483;48.294;16.388;2024-01-11T02:36:28;100794.34;;;-8.16;100.00
47726;BME280;33483;48.294;16.388;2024-01-11T02:38:54;100793.13;;;-8.22;100.00
47726;BME280;33483;48.294;16.388;2024-01-11T02:41:22;100792.75;;;-8.21;100.00
47726;BME280;33483;48.294;16.388;2024-01-11T02:43:50;100788.13;;;-8.27;100.00
47726;BME280;33483;48.294;16.388;2024-01-11T02:46:18;100781.91;;;-8.35;100.00
47726;BME280;33483;48.294;16.388;2024-01-11T02:48:45;100769.69;;;-8.29;100.00
47726;BME280;33483;48.294;16.388;2024-01-11T02:51:13;100767.00;;;-8.29;100.00
47726;BME280;33483;48.294;16.388;2024-01-11T02:53:40;100770.47;;;-8.28;100.00
47726;BME280;33483;48.294;16.388;2024-01-11T02:56:07;100780.38;;;-8.36;100.00
47726;BME280;33483;48.294;16.388;2024-01-11T02:58:34;100775.81;;;-8.32;100.00
47726;BME280;33483;48.294;16.388;2024-01-11T03:01:05;100775.03;;;-8.32;100.00
47726;BME280;33483;48.294;16.388;2024-01-11T03:03:32;100765.75;;;-8.38;100.00
47726;BME280;33483;48.294;16.388;2024-01-11T03:06:03;100767.34;;;-8.34;100.00
47726;BME280;33483;48.294;16.388;2024-01-11T03:08:30;100762.34;;;-8.35;100.00
47726;BME280;33483;48.294;16.388;2024-01-11T03:10:57;100762.31;;;-8.39;100.00
47726;BME280;33483;48.294;16.388;2024-01-11T03:13:24;100752.25;;;-8.45;100.00
47726;BME280;33483;48.294;16.388;2024-01-11T03:15:51;100757.63;;;-8.45;100.00
47726;BME280;33483;48.294;16.388;2024-01-11T03:18:18;100766.03;;;-8.50;100.00
47726;BME280;33483;48.294;16.388;2024-01-11T03:20:46;100754.19;;;-8.46;100.00
47726;BME280;33483;48.294;16.388;2024-01-11T03:23:13;100749.19;;;-8.44;100.00
47726;BME280;33483;48.294;16.388;2024-01-11T03:25:40;100748.38;;;-8.51;100.00
47726;BME280;33483;48.294;16.388;2024-01-11T03:28:07;100757.59;;;-8.49;100.00
47726;BME280;33483;48.294;16.388;2024-01-11T03:30:35;100750.34;;;-8.45;100.00
47726;BME280;33483;48.294;16.388;2024-01-11T03:33:02;100745.38;;;-8.43;100.00
47726;BME280;33483;48.294;16.388;2024-01-11T03:35:30;100738.06;;;-8.46;100.00
47726;BME280;33483;48.294;16.388;2024-01-11T03:38:00;100733.06;;;-8.44;100.00
47726;BME280;33483;48.294;16.388;2024-01-11T03:40:27;100736.50;;;-8.47;100.00
47726;BME280;33483;48.294;16.388;2024-01-11T03:42:54;100734.25;;;-8.41;100.00
47726;BME280;33483;48.294;16.388;2024-01-11T03:45:21;100731.94;;;-8.43;100.00
47726;BME280;33483;48.294;16.388;2024-01-11T03:47:48;100733.38;;;-8.52;100.00
47726;BME280;33483;48.294;16.388;2024-01-11T03:50:15;100721.91;;;-8.49;100.00
47726;BME280;33483;48.294;16.388;2024-01-11T03:52:42;100733.81;;;-8.47;100.00
47726;BME280;33483;48.294;16.388;2024-01-11T03:55:10;100726.94;;;-8.44;100.00
47726;BME280;33483;48.294;16.388;2024-01-11T03:57:37;100732.69;;;-8.46;100.00
47726;BME280;33483;48.294;16.388;2024-01-11T04:00:04;100725.72;;;-8.50;100.00
47726;BME280;33483;48.294;16.388;2024-01-11T04:02:37;100724.25;;;-8.44;100.00
47726;BME280;33483;48.294;16.388;2024-01-11T04:05:04;100720.81;;;-8.41;100.00
47726;BME280;33483;48.294;16.388;2024-01-11T04:07:32;100718.94;;;-8.37;100.00
47726;BME280;33483;48.294;16.388;2024-01-11T04:10:00;100721.22;;;-8.39;100.00
47726;BME280;33483;48.294;16.388;2024-01-11T04:12:29;100719.34;;;-8.35;100.00
47726;BME280;33483;48.294;16.388;2024-01-11T04:14:57;100718.19;;;-8.34;100.00
47726;BME280;33483;48.294;16.388;2024-01-11T04:17:27;100712.81;;;-8.34;100.00
47726;BME280;33483;48.294;16.388;2024-01-11T04:19:57;100719.34;;;-8.35;100.00
47726;BME280;33483;48.294;16.388;2024-01-11T04:22:24;100720.50;;;-8.33;100.00
47726;BME280;33483;48.294;16.388;2024-01-11T04:24:51;100723.22;;;-8.29;100.00
47726;BME280;33483;48.294;16.388;2024-01-11T04:27:18;100722.06;;;-8.32;100.00
47726;BME280;33483;48.294;16.388;2024-01-11T04:29:48;100725.09;;;-8.33;100.00
47726;BME280;33483;48.294;16.388;2024-01-11T04:32:18;100720.09;;;-8.35;100.00
47726;BME280;33483;48.294;16.388;2024-01-11T04:34:46;100720.88;;;-8.34;100.00
47726;BME280;33483;48.294;16.388;2024-01-11T04:37:13;100718.53;;;-8.39;100.00
47726;BME280;33483;48.294;16.388;2024-01-11T04:39:40;100739.59;;;-8.45;100.00
47726;BME280;33483;48.294;16.388;2024-01-11T04:42:10;100745.28;;;-8.53;100.00
47726;BME280;33483;48.294;16.388;2024-01-11T04:44:37;100747.28;;;-8.43;100.00
47726;BME280;33483;48.294;16.388;2024-01-11T04:47:04;100756.16;;;-8.39;100.00
47726;BME280;33483;48.294;16.388;2024-01-11T04:49:31;100758.47;;;-8.38;100.00
47726;BME280;33483;48.294;16.388;2024-01-11T04:51:59;100761.16;;;-8.38;100.00
47726;BME280;33483;48.294;16.388;2024-01-11T04:54:26;100751.94;;;-8.37;100.00
47726;BME280;33483;48.294;16.388;2024-01-11T04:56:53;100749.66;;;-8.35;100.00
47726;BME280;33483;48.294;16.388;2024-01-11T04:59:23;100751.25;;;-8.30;100.00
47726;BME280;33483;48.294;16.388;2024-01-11T05:01:52;100764.31;;;-8.29;100.00
47726;BME280;33483;48.294;16.388;2024-01-11T05:04:19;100757.81;;;-8.24;100.00
47726;BME280;33483;48.294;16.388;2024-01-11T05:06:46;100757.84;;;-8.17;100.00
47726;BME280;33483;48.294;16.388;2024-01-11T05:09:13;100754.81;;;-8.12;100.00
47726;BME280;33483;48.294;16.388;2024-01-11T05:11:41;100761.00;;;-8.08;100.00
47726;BME280;33483;48.294;16.388;2024-01-11T05:14:09;100759.84;;;-8.07;100.00
47726;BME280;33483;48.294;16.388;2024-01-11T05:16:35;100761.81;;;-8.04;100.00
47726;BME280;33483;48.294;16.388;2024-01-11T05:19:03;100756.03;;;-8.02;100.00
47726;BME280;33483;48.294;16.388;2024-01-11T05:21:30;100756.84;;;-7.98;100.00
47726;BME280;33483;48.294;16.388;2024-01-11T05:23:57;100754.50;;;-8.00;100.00
47726;BME280;33483;48.294;16.388;2024-01-11T05:26:25;100750.69;;;-7.99;100.00
47726;BME280;33483;48.294;16.388;2024-01-11T05:28:55;100752.22;;;-7.98;100.00
47726;BME280;33483;48.294;16.388;2024-01-11T05:31:22;100762.97;;;-7.98;100.00
47726;BME280;33483;48.294;16.388;2024-01-11T05:33:50;100762.63;;;-7.93;100.00
47726;BME280;33483;48.294;16.388;2024-01-11T05:36:17;100768.41;;;-7.91;100.00
47726;BME280;33483;48.294;16.388;2024-01-11T05:38:44;100757.25;;;-7.93;100.00
47726;BME280;33483;48.294;16.388;2024-01-11T05:41:12;100761.88;;;-7.93;100.00
47726;BME280;33483;48.294;16.388;2024-01-11T05:43:39;100762.25;;;-7.95;100.00
47726;BME280;33483;48.294;16.388;2024-01-11T05:46:07;100764.56;;;-7.93;100.00
47726;BME280;33483;48.294;16.388;2024-01-11T05:48:34;100765.31;;;-7.93;100.00
47726;BME280;33483;48.294;16.388;2024-01-11T05:51:01;100760.31;;;-7.94;100.00
47726;BME280;33483;48.294;16.388;2024-01-11T05:53:31;100765.31;;;-7.93;100.00
47726;BME280;33483;48.294;16.388;2024-01-11T05:56:07;100749.19;;;-7.93;100.00
47726;BME280;33483;48.294;16.388;2024-01-11T05:58:34;100735.72;;;-7.93;100.00
47726;BME280;33483;48.294;16.388;2024-01-11T06:01:01;100734.63;;;-7.88;100.00
47726;BME280;33483;48.294;16.388;2024-01-11T06:03:28;100734.25;;;-7.87;100.00
47726;BME280;33483;48.294;16.388;2024-01-11T06:05:59;100736.94;;;-7.87;100.00
47726;BME280;33483;48.294;16.388;2024-01-11T06:08:27;100731.16;;;-7.89;100.00
47726;BME280;33483;48.294;16.388;2024-01-11T06:10:54;100731.91;;;-7.92;100.00
47726;BME280;33483;48.294;16.388;2024-01-11T06:13:21;100733.44;;;-7.94;100.00
47726;BME280;33483;48.294;16.388;2024-01-11T06:15:48;100731.13;;;-7.96;100.00
47726;BME280;33483;48.294;16.388;2024-01-11T06:18:16;100733.03;;;-7.96;100.00
47726;BME280;33483;48.294;16.388;2024-01-11T06:20:44;100736.09;;;-7.98;100.00
47726;BME280;33483;48.294;16.388;2024-01-11T06:23:11;100740.34;;;-7.97;100.00
47726;BME280;33483;48.294;16.388;2024-01-11T06:25:38;100740.72;;;-7.98;100.00
47726;BME280;33483;48.294;16.388;2024-01-11T06:28:05;100746.84;;;-7.98;100.00
47726;BME280;33483;48.294;16.388;2024-01-11T06:30:36;100743.78;;;-7.96;100.00
47726;BME280;33483;48.294;16.388;2024-01-11T06:33:04;100743.06;;;-7.93;100.00
47726;BME280;33483;48.294;16.388;2024-01-11T06:35:31;100742.31;;;-7.90;100.00
47726;BME280;33483;48.294;16.388;2024-01-11T06:37:58;100753.09;;;-7.87;100.00
47726;BME280;33483;48.294;16.388;2024-01-11T06:40:26;100761.19;;;-7.83;100.00
47726;BME280;33483;48.294;16.388;2024-01-11T06:42:53;100778.84;;;-7.82;100.00
47726;BME280;33483;48.294;16.388;2024-01-11T06:45:20;100788.47;;;-7.85;100.00
47726;BME280;33483;48.294;16.388;2024-01-11T06:47:47;100793.88;;;-7.81;100.00
47726;BME280;33483;48.294;16.388;2024-01-11T06:50:16;100800.81;;;-7.77;100.00
47726;BME280;33483;48.294;16.388;2024-01-11T06:52:43;100790.81;;;-7.76;100.00
47726;BME280;33483;48.294;16.388;2024-01-11T06:55:13;100793.94;;;-7.71;100.00
47726;BME280;33483;48.294;16.388;2024-01-11T06:57:40;100794.78;;;-7.60;100.00
47726;BME280;33483;48.294;16.388;2024-01-11T07:00:07;100782.13;;;-7.56;100.00
47726;BME280;33483;48.294;16.388;2024-01-11T07:02:34;100775.69;;;-7.37;100.00
47726;BME280;33483;48.294;16.388;2024-01-11T07:05:05;100794.22;;;-7.22;100.00
47726;BME280;33483;48.294;16.388;2024-01-11T07:07:32;100795.06;;;-7.11;100.00
47726;BME280;33483;48.294;16.388;2024-01-11T07:09:59;100807.00;;;-7.12;100.00
47726;BME280;33483;48.294;16.388;2024-01-11T07:12:26;100804.66;;;-7.17;100.00
47726;BME280;33483;48.294;16.388;2024-01-11T07:14:54;100788.13;;;-7.15;100.00
47726;BME280;33483;48.294;16.388;2024-01-11T07:17:21;100792.84;;;-6.87;100.00
47726;BME280;33483;48.294;16.388;2024-01-11T07:19:49;100798.25;;;-6.84;100.00
47726;BME280;33483;48.294;16.388;2024-01-11T07:22:16;100808.22;;;-6.95;100.00
47726;BME280;33483;48.294;16.388;2024-01-11T07:24:44;100804.34;;;-7.01;100.00
47726;BME280;33483;48.294;16.388;2024-01-11T07:27:11;100795.09;;;-7.04;100.00
47726;BME280;33483;48.294;16.388;2024-01-11T07:29:38;100803.56;;;-7.05;100.00
47726;BME280;33483;48.294;16.388;2024-01-11T07:32:05;100805.50;;;-6.99;100.00
47726;BME280;33483;48.294;16.388;2024-01-11T07:34:33;100796.31;;;-6.90;100.00
47726;BME280;33483;48.294;16.388;2024-01-11T07:37:01;100805.94;;;-6.82;100.00
47726;BME280;33483;48.294;16.388;2024-01-11T07:39:31;100800.25;;;-6.56;100.00
47726;BME280;33483;48.294;16.388;2024-01-11T07:41:58;100798.75;;;-5.77;100.00
47726;BME280;33483;48.294;16.388;2024-01-11T07:44:25;100800.44;;;-4.75;100.00
47726;BME280;33483;48.294;16.388;2024-01-11T07:46:52;100799.94;;;-3.94;100.00
47726;BME280;33483;48.294;16.388;2024-01-11T07:49:22;100805.63;;;-3.37;100.00
47726;BME280;33483;48.294;16.388;2024-01-11T07:51:49;100815.16;;;-2.89;100.00
47726;BME280;33483;48.294;16.388;2024-01-11T07:54:17;100822.09;;;-2.54;100.00
47726;BME280;33483;48.294;16.388;2024-01-11T07:56:44;100826.78;;;-2.28;100.00
47726;BME280;33483;48.294;16.388;2024-01-11T07:59:13;100836.50;;;-2.04;100.00
47726;BME280;33483;48.294;16.388;2024-01-11T08:01:42;100842.66;;;-2.00;100.00
47726;BME280;33483;48.294;16.388;2024-01-11T08:04:09;100850.47;;;-1.52;100.00
47726;BME280;33483;48.294;16.388;2024-01-11T08:06:39;100847.84;;;-1.82;100.00
47726;BME280;33483;48.294;16.388;2024-01-11T08:09:07;100844.75;;;-1.84;100.00
47726;BME280;33483;48.294;16.388;2024-01-11T08:11:39;100840.31;;;-1.98;100.00
47726;BME280;33483;48.294;16.388;2024-01-11T08:14:15;100834.78;;;-2.17;100.00
47726;BME280;33483;48.294;16.388;2024-01-11T08:16:42;100835.13;;;-2.42;100.00
47726;BME280;33483;48.294;16.388;2024-01-11T08:19:12;100846.06;;;-2.79;100.00
47726;BME280;33483;48.294;16.388;2024-01-11T08:21:42;100851.69;;;-2.97;100.00
47726;BME280;33483;48.294;16.388;2024-01-11T08:24:09;100835.44;;;-3.00;100.00
47726;BME280;33483;48.294;16.388;2024-01-11T08:26:39;100832.69;;;-3.34;100.00
47726;BME280;33483;48.294;16.388;2024-01-11T08:29:06;100836.19;;;-3.33;100.00
47726;BME280;33483;48.294;16.388;2024-01-11T08:31:34;100843.41;;;-3.64;100.00
47726;BME280;33483;48.294;16.388;2024-01-11T08:34:08;100843.81;;;-3.66;100.00
47726;BME280;33483;48.294;16.388;2024-01-11T08:36:35;100847.66;;;-3.63;100.00
47726;BME280;33483;48.294;16.388;2024-01-11T08:39:05;100846.41;;;-3.99;100.00
47726;BME280;33483;48.294;16.388;2024-01-11T08:41:33;100839.34;;;-3.90;100.00
47726;BME280;33483;48.294;16.388;2024-01-11T08:44:01;100823.09;;;-3.90;100.00
47726;BME280;33483;48.294;16.388;2024-01-11T08:46:29;100826.66;;;-3.96;100.00
47726;BME280;33483;48.294;16.388;2024-01-11T08:49:03;100825.59;;;-4.16;100.00
47726;BME280;33483;48.294;16.388;2024-01-11T08:51:30;100810.84;;;-4.01;100.00
47726;BME280;33483;48.294;16.388;2024-01-11T08:53:59;100806.50;;;-3.95;100.00
47726;BME280;33483;48.294;16.388;2024-01-11T08:56:26;100799.94;;;-3.94;100.00
47726;BME280;33483;48.294;16.388;2024-01-11T08:58:53;100804.53;;;-3.88;100.00
47726;BME280;33483;48.294;16.388;2024-01-11T09:01:21;100796.88;;;-3.96;100.00
47726;BME280;33483;48.294;16.388;2024-01-11T09:03:49;100792.53;;;-3.90;100.00
47726;BME280;33483;48.294;16.388;2024-01-11T09:06:16;100783.94;;;-3.78;100.00
47726;BME280;33483;48.294;16.388;2024-01-11T09:08:44;100785.75;;;-3.61;100.00
47726;BME280;33483;48.294;16.388;2024-01-11T09:11:11;100788.78;;;-3.59;100.00
47726;BME280;33483;48.294;16.388;2024-01-11T09:13:41;100781.91;;;-3.67;100.00
47726;BME280;33483;48.294;16.388;2024-01-11T09:16:13;100770.59;;;-3.59;100.00
47726;BME280;33483;48.294;16.388;2024-01-11T09:18:41;100777.72;;;-3.34;100.00
47726;BME280;33483;48.294;16.388;2024-01-11T09:21:11;100764.13;;;-3.31;100.00
47726;BME280;33483;48.294;16.388;2024-01-11T09:23:41;100754.03;;;-3.27;100.00
47726;BME280;33483;48.294;16.388;2024-01-11T09:26:08;100746.63;;;-3.23;100.00
47726;BME280;33483;48.294;16.388;2024-01-11T09:28:36;100740.38;;;-3.20;100.00
47726;BME280;33483;48.294;16.388;2024-01-11T09:31:03;100729.94;;;-3.21;100.00
47726;BME280;33483;48.294;16.388;2024-01-11T09:33:31;100726.06;;;-3.20;100.00
47726;BME280;33483;48.294;16.388;2024-01-11T09:35:58;100719.75;;;-3.10;100.00
47726;BME280;33483;48.294;16.388;2024-01-11T09:38:25;100704.59;;;-3.08;100.00
47726;BME280;33483;48.294;16.388;2024-01-11T09:40:58;100704.88;;;-2.99;100.00
47726;BME280;33483;48.294;16.388;2024-01-11T09:43:26;100697.84;;;-2.96;100.00
47726;BME280;33483;48.294;16.388;2024-01-11T09:45:53;100700.53;;;-2.93;100.00
47726;BME280;33483;48.294;16.388;2024-01-11T09:48:21;100691.50;;;-2.83;100.00
47726;BME280;33483;48.294;16.388;2024-01-11T09:50:50;100684.41;;;-2.77;100.00
47726;BME280;33483;48.294;16.388;2024-01-11T09:53:18;100679.31;;;-2.71;100.00
47726;BME280;33483;48.294;16.388;2024-01-11T09:55:47;100700.97;;;-2.68;100.00
47726;BME280;33483;48.294;16.388;2024-01-11T09:58:15;100707.63;;;-2.72;100.00
47726;BME280;33483;48.294;16.388;2024-01-11T10:00:42;100684.06;;;-2.79;100.00
47726;BME280;33483;48.294;16.388;2024-01-11T10:03:11;100686.19;;;-2.67;100.00
47726;BME280;33483;48.294;16.388;2024-01-11T10:05:41;100693.09;;;-2.59;100.00
47726;BME280;33483;48.294;16.388;2024-01-11T10:08:11;100690.88;;;-2.67;100.00
47726;BME280;33483;48.294;16.388;2024-01-11T10:10:38;100709.38;;;-2.59;100.00
47726;BME280;33483;48.294;16.388;2024-01-11T10:13:07;100711.50;;;-2.47;100.00
47726;BME280;33483;48.294;16.388;2024-01-11T10:15:34;100718.41;;;-2.42;100.00
47726;BME280;33483;48.294;16.388;2024-01-11T10:18:02;100711.41;;;-2.40;100.00
47726;BME280;33483;48.294;16.388;2024-01-11T10:20:32;100710.47;;;-2.30;100.00
47726;BME280;33483;48.294;16.388;2024-01-11T10:23:00;100710.13;;;-2.08;100.00
47726;BME280;33483;48.294;16.388;2024-01-11T10:25:28;100690.88;;;-1.94;100.00
47726;BME280;33483;48.294;16.388;2024-01-11T10:27:56;100694.00;;;-1.96;100.00
47726;BME280;33483;48.294;16.388;2024-01-11T10:30:24;100703.25;;;-1.93;100.00
47726;BME280;33483;48.294;16.388;2024-01-11T10:32:53;100700.22;;;-1.95;100.00
47726;BME280;33483;48.294;16.388;2024-01-11T10:35:20;100715.50;;;-2.05;100.00
47726;BME280;33483;48.294;16.388;2024-01-11T10:37:50;100699.19;;;-2.05;100.00
47726;BME280;33483;48.294;16.388;2024-01-11T10:40:20;100695.28;;;-2.04;100.00
47726;BME280;33483;48.294;16.388;2024-01-11T10:42:51;100696.66;;;-1.92;100.00
47726;BME280;33483;48.294;16.388;2024-01-11T10:45:19;100686.34;;;-2.01;100.00
47726;BME280;33483;48.294;16.388;2024-01-11T10:47:51;100684.31;;;-1.97;100.00
47726;BME280;33483;48.294;16.388;2024-01-11T10:50:20;100670.72;;;-1.97;100.00
47726;BME280;33483;48.294;16.388;2024-01-11T10:55:37;100667.75;;;-1.83;100.00
47726;BME280;33483;48.294;16.388;2024-01-11T10:58:07;100667.34;;;-1.81;100.00
47726;BME280;33483;48.294;16.388;2024-01-11T11:00:34;100664.50;;;-1.74;100.00
47726;BME280;33483;48.294;16.388;2024-01-11T11:03:02;100649.81;;;-1.57;100.00
47726;BME280;33483;48.294;16.388;2024-01-11T11:05:32;100642.34;;;-1.53;100.00
47726;BME280;33483;48.294;16.388;2024-01-11T11:08:03;100652.66;;;-1.64;100.00
47726;BME280;33483;48.294;16.388;2024-01-11T11:10:31;100658.09;;;-1.84;100.00
47726;BME280;33483;48.294;16.388;2024-01-11T11:12:59;100661.38;;;-1.73;100.00
47726;BME280;33483;48.294;16.388;2024-01-11T11:15:27;100667.44;;;-1.65;100.00
47726;BME280;33483;48.294;16.388;2024-01-11T11:17:57;100669.38;;;-1.46;100.00
47726;BME280;33483;48.294;16.388;2024-01-11T11:20:24;100663.13;;;-1.43;100.00
47726;BME280;33483;48.294;16.388;2024-01-11T11:23:04;100661.66;;;-1.48;100.00
47726;BME280;33483;48.294;16.388;2024-01-11T11:25:32;100657.13;;;-1.35;100.00
47726;BME280;33483;48.294;16.388;2024-01-11T11:27:59;100654.13;;;-1.40;100.00
47726;BME280;33483;48.294;16.388;2024-01-11T11:30:33;100638.91;;;-1.38;100.00
47726;BME280;33483;48.294;16.388;2024-01-11T11:33:10;100632.59;;;-1.31;100.00
47726;BME280;33483;48.294;16.388;2024-01-11T11:35:37;100647.19;;;-1.25;100.00
47726;BME280;33483;48.294;16.388;2024-01-11T11:38:05;100648.44;;;-1.10;100.00
47726;BME280;33483;48.294;16.388;2024-01-11T11:40:33;100634.84;;;-1.10;100.00
47726;BME280;33483;48.294;16.388;2024-01-11T11:43:04;100641.63;;;-1.18;100.00
47726;BME280;33483;48.294;16.388;2024-01-11T11:45:31;100642.38;;;-1.18;100.00
47726;BME280;33483;48.294;16.388;2024-01-11T11:47:59;100622.94;;;-1.16;100.00
47726;BME280;33483;48.294;16.388;2024-01-11T11:50:26;100614.91;;;-1.23;100.00
47726;BME280;33483;48.294;16.388;2024-01-11T11:52:54;100604.63;;;-1.32;100.00
47726;BME280;33483;48.294;16.388;2024-01-11T11:55:24;100606.34;;;-1.22;100.00
47726;BME280;33483;48.294;16.388;2024-01-11T11:57:52;100601.75;;;-1.25;100.00
47726;BME280;33483;48.294;16.388;2024-01-11T12:00:22;100603.19;;;-1.20;100.00
47726;BME280;33483;48.294;16.388;2024-01-11T12:02:50;100595.66;;;-1.13;100.00
47726;BME280;33483;48.294;16.388;2024-01-11T12:05:22;100595.81;;;-1.20;100.00
47726;BME280;33483;48.294;16.388;2024-01-11T12:07:50;100604.38;;;-1.21;100.00
47726;BME280;33483;48.294;16.388;2024-01-11T12:10:20;100601.16;;;-1.16;100.00
47726;BME280;33483;48.294;16.388;2024-01-11T12:12:47;100593.81;;;-0.99;100.00
47726;BME280;33483;48.294;16.388;2024-01-11T12:15:17;100598.81;;;-0.82;100.00
47726;BME280;33483;48.294;16.388;2024-01-11T12:17:45;100588.19;;;-0.60;100.00
47726;BME280;33483;48.294;16.388;2024-01-11T12:20:13;100582.75;;;-0.44;100.00
47726;BME280;33483;48.294;16.388;2024-01-11T12:22:41;100564.41;;;-0.28;99.89
47726;BME280;33483;48.294;16.388;2024-01-11T12:25:08;100574.69;;;-0.19;98.94
47726;BME280;33483;48.294;16.388;2024-01-11T12:27:37;100573.09;;;-0.17;98.13
47726;BME280;33483;48.294;16.388;2024-01-11T12:30:05;100561.22;;;-0.10;93.39
47726;BME280;33483;48.294;16.388;2024-01-11T12:32:32;100566.75;;;-0.14;92.95
47726;BME280;33483;48.294;16.388;2024-01-11T12:35:01;100556.03;;;-0.33;97.30
47726;BME280;33483;48.294;16.388;2024-01-11T12:37:30;100572.22;;;-0.58;97.80